createdAt,value
2019-03-09T00:00:15.349Z,0.00
2019-03-09T00:01:15.330Z,0.00
2019-03-09T00:02:15.189Z,0.00
2019-03-09T00:03:15.076Z,0.00
2019-03-09T00:04:14.998Z,0.00
2019-03-09T00:05:14.970Z,0.00
2019-03-09T00:06:15.942Z,0.00
2019-03-09T00:07:14.796Z,0.00
2019-03-09T00:08:14.732Z,0.00
2019-03-09T00:09:14.698Z,0.00
2019-03-09T00:10:14.482Z,0.00
2019-03-09T00:11:14.436Z,0.00
2019-03-09T00:12:14.275Z,0.00
2019-03-09T00:13:14.305Z,0.00
2019-03-09T00:14:14.407Z,0.00
2019-03-09T00:15:15.150Z,0.00
2019-03-09T00:16:14.072Z,0.00
2019-03-09T00:17:13.904Z,0.00
2019-03-09T00:18:13.805Z,0.00
2019-03-09T00:19:13.806Z,0.00
2019-03-09T00:20:13.693Z,0.00
2019-03-09T00:21:13.552Z,0.00
2019-03-09T00:22:13.493Z,0.00
2019-03-09T00:23:13.404Z,0.00
2019-03-09T00:24:13.370Z,0.00
2019-03-09T00:25:13.285Z,0.00
2019-03-09T00:26:13.153Z,0.00
2019-03-09T00:27:13.065Z,0.00
2019-03-09T00:28:14.091Z,0.00
2019-03-09T00:29:12.898Z,0.00
2019-03-09T00:30:12.851Z,0.00
2019-03-09T00:31:12.772Z,0.00
2019-03-09T00:32:12.623Z,0.00
2019-03-09T00:33:12.530Z,0.00
2019-03-09T00:34:12.410Z,0.00
2019-03-09T00:35:12.322Z,0.00
2019-03-09T00:36:12.224Z,0.00
2019-03-09T00:37:12.136Z,0.00
2019-03-09T00:38:12.061Z,0.00
2019-03-09T00:39:11.971Z,0.00
2019-03-09T00:40:11.934Z,0.00
2019-03-09T00:41:11.790Z,0.00
2019-03-09T00:42:11.734Z,0.00
2019-03-09T00:43:11.627Z,0.00
2019-03-09T00:44:11.544Z,0.00
2019-03-09T00:45:11.477Z,0.00
2019-03-09T00:46:11.411Z,0.00
2019-03-09T00:47:11.295Z,0.00
2019-03-09T00:48:11.208Z,0.00
2019-03-09T00:49:11.326Z,0.00
2019-03-09T00:50:11.074Z,0.00
2019-03-09T00:51:10.947Z,0.00
2019-03-09T00:52:10.869Z,0.00
2019-03-09T00:53:10.777Z,0.00
2019-03-09T00:54:10.701Z,0.00
2019-03-09T00:55:10.619Z,0.00
2019-03-09T00:56:10.526Z,0.00
2019-03-09T00:57:10.439Z,0.00
2019-03-09T00:58:10.359Z,0.00
2019-03-09T00:59:10.272Z,0.00
2019-03-09T01:00:10.201Z,0.00
2019-03-09T01:01:10.104Z,0.00
2019-03-09T01:02:10.019Z,0.00
2019-03-09T01:03:09.928Z,0.00
2019-03-09T01:04:09.865Z,0.00
2019-03-09T01:05:09.772Z,0.00
2019-03-09T01:06:09.678Z,0.00
2019-03-09T01:07:09.595Z,0.00
2019-03-09T01:08:09.506Z,0.00
2019-03-09T01:09:09.420Z,0.00
2019-03-09T01:10:09.366Z,0.00
2019-03-09T01:11:09.249Z,0.00
2019-03-09T01:12:09.173Z,0.00
2019-03-09T01:13:09.080Z,0.00
2019-03-09T01:14:09.005Z,0.00
2019-03-09T01:15:08.924Z,0.00
2019-03-09T01:16:08.845Z,0.00
2019-03-09T01:17:08.784Z,0.00
2019-03-09T01:18:08.700Z,0.00
2019-03-09T01:19:08.585Z,0.00
2019-03-09T01:20:08.533Z,0.00
2019-03-09T01:21:08.414Z,0.00
2019-03-09T01:22:08.320Z,0.00
2019-03-09T01:23:08.231Z,0.00
2019-03-09T01:24:08.151Z,0.00
2019-03-09T01:25:08.076Z,0.00
2019-03-09T01:26:07.977Z,0.00
2019-03-09T01:27:07.899Z,0.00
2019-03-09T01:28:07.807Z,0.00
2019-03-09T01:29:07.728Z,0.00
2019-03-09T01:30:07.672Z,0.00
2019-03-09T01:31:07.552Z,0.00
2019-03-09T01:32:07.468Z,0.00
2019-03-09T01:33:07.388Z,0.00
2019-03-09T01:34:07.302Z,0.00
2019-03-09T01:35:07.267Z,0.00
2019-03-09T01:36:07.135Z,0.00
2019-03-09T01:37:07.041Z,0.00
2019-03-09T01:38:06.973Z,0.00
2019-03-09T01:39:06.877Z,0.00
2019-03-09T01:40:06.807Z,0.00
2019-03-09T01:41:06.702Z,0.00
2019-03-09T01:42:06.621Z,0.00
2019-03-09T01:43:06.541Z,0.00
2019-03-09T01:44:06.449Z,0.00
2019-03-09T01:45:06.384Z,0.00
2019-03-09T01:46:06.283Z,0.00
2019-03-09T01:47:06.193Z,0.00
2019-03-09T01:48:06.114Z,0.00
2019-03-09T01:49:06.033Z,0.00
2019-03-09T01:50:06.096Z,0.00
2019-03-09T01:51:05.852Z,0.00
2019-03-09T01:52:06.794Z,0.00
2019-03-09T01:53:05.686Z,0.00
2019-03-09T01:54:05.606Z,0.00
2019-03-09T01:55:05.519Z,0.00
2019-03-09T01:56:05.446Z,0.00
2019-03-09T01:57:05.355Z,0.00
2019-03-09T01:58:05.268Z,0.00
2019-03-09T01:59:05.178Z,0.00
2019-03-09T02:00:05.087Z,0.00
2019-03-09T02:01:05.024Z,0.00
2019-03-09T02:02:04.921Z,0.00
2019-03-09T02:03:04.840Z,0.00
2019-03-09T02:04:04.752Z,0.00
2019-03-09T02:05:04.673Z,0.00
2019-03-09T02:06:04.598Z,0.00
2019-03-09T02:07:04.508Z,0.00
2019-03-09T02:08:04.418Z,0.00
2019-03-09T02:09:04.339Z,0.00
2019-03-09T02:10:04.253Z,0.00
2019-03-09T02:11:04.169Z,0.00
2019-03-09T02:12:04.079Z,0.00
2019-03-09T02:13:03.994Z,0.00
2019-03-09T02:14:03.902Z,0.00
2019-03-09T02:15:03.823Z,0.00
2019-03-09T02:16:03.750Z,0.00
2019-03-09T02:17:03.653Z,0.00
2019-03-09T02:18:03.572Z,0.00
2019-03-09T02:19:03.482Z,0.00
2019-03-09T02:20:03.399Z,0.00
2019-03-09T02:21:03.337Z,0.00
2019-03-09T02:22:03.226Z,0.00
2019-03-09T02:23:03.146Z,0.00
2019-03-09T02:24:03.056Z,0.00
2019-03-09T02:25:02.967Z,0.00
2019-03-09T02:26:02.895Z,0.00
2019-03-09T02:27:02.801Z,0.00
2019-03-09T02:28:02.711Z,0.00
2019-03-09T02:29:02.634Z,0.00
2019-03-09T02:30:02.551Z,0.00
2019-03-09T02:31:02.485Z,0.00
2019-03-09T02:32:02.381Z,0.00
2019-03-09T02:33:02.301Z,0.00
2019-03-09T02:34:02.208Z,0.00
2019-03-09T02:35:02.131Z,0.00
2019-03-09T02:36:02.046Z,0.00
2019-03-09T02:37:01.952Z,0.00
2019-03-09T02:38:01.874Z,0.00
2019-03-09T02:39:01.783Z,0.00
2019-03-09T02:40:01.697Z,0.00
2019-03-09T02:41:01.634Z,0.00
2019-03-09T02:42:01.526Z,0.00
2019-03-09T02:43:01.443Z,0.00
2019-03-09T02:44:01.368Z,0.00
2019-03-09T02:45:01.289Z,0.00
2019-03-09T02:46:01.193Z,0.00
2019-03-09T02:47:01.099Z,0.00
2019-03-09T02:48:01.026Z,0.00
2019-03-09T02:49:00.930Z,0.00
2019-03-09T02:50:00.843Z,0.00
2019-03-09T02:51:00.790Z,0.00
2019-03-09T02:52:00.684Z,0.00
2019-03-09T02:53:00.595Z,0.00
2019-03-09T02:54:00.514Z,0.00
2019-03-09T02:55:00.557Z,0.00
2019-03-09T02:56:00.346Z,0.00
2019-03-09T02:57:00.258Z,0.00
2019-03-09T02:58:00.180Z,0.00
2019-03-09T02:59:00.090Z,0.00
2019-03-09T03:00:01.250Z,0.00
2019-03-09T03:00:59.924Z,0.00
2019-03-09T03:01:59.831Z,0.00
2019-03-09T03:02:59.741Z,0.00
2019-03-09T03:03:59.656Z,0.00
2019-03-09T03:04:59.574Z,0.00
2019-03-09T03:05:59.499Z,0.00
2019-03-09T03:06:59.422Z,0.00
2019-03-09T03:07:59.328Z,0.00
2019-03-09T03:08:59.232Z,0.00
2019-03-09T03:09:59.151Z,0.00
2019-03-09T03:10:59.086Z,0.00
2019-03-09T03:11:58.976Z,0.00
2019-03-09T03:12:58.896Z,0.00
2019-03-09T03:13:58.819Z,0.00
2019-03-09T03:14:58.726Z,0.00
2019-03-09T03:15:58.660Z,0.00
2019-03-09T03:16:58.573Z,0.00
2019-03-09T03:17:58.468Z,0.00
2019-03-09T03:18:58.386Z,0.00
2019-03-09T03:19:58.296Z,0.00
2019-03-09T03:20:58.217Z,0.00
2019-03-09T03:21:58.144Z,0.00
2019-03-09T03:22:58.040Z,0.00
2019-03-09T03:23:57.979Z,0.00
2019-03-09T03:24:57.887Z,0.00
2019-03-09T03:25:57.786Z,0.00
2019-03-09T03:26:57.732Z,0.00
2019-03-09T03:27:57.663Z,0.00
2019-03-09T03:28:57.541Z,0.00
2019-03-09T03:29:57.451Z,0.00
2019-03-09T03:30:57.375Z,0.00
2019-03-09T03:31:57.310Z,0.00
2019-03-09T03:32:57.193Z,0.00
2019-03-09T03:33:57.106Z,0.00
2019-03-09T03:34:57.041Z,0.00
2019-03-09T03:35:56.936Z,0.00
2019-03-09T03:36:56.873Z,0.00
2019-03-09T03:37:56.766Z,0.00
2019-03-09T03:38:56.689Z,0.00
2019-03-09T03:39:56.678Z,0.00
2019-03-09T03:40:56.517Z,0.00
2019-03-09T03:41:56.449Z,0.00
2019-03-09T03:42:56.363Z,0.00
2019-03-09T03:43:56.257Z,0.00
2019-03-09T03:44:56.181Z,0.00
2019-03-09T03:45:56.090Z,0.00
2019-03-09T03:46:56.025Z,0.00
2019-03-09T03:47:55.928Z,0.00
2019-03-09T03:48:55.839Z,0.00
2019-03-09T03:49:55.757Z,0.00
2019-03-09T03:50:55.669Z,0.00
2019-03-09T03:51:55.607Z,0.00
2019-03-09T03:52:55.502Z,0.00
2019-03-09T03:53:55.415Z,0.00
2019-03-09T03:54:55.325Z,0.00
2019-03-09T03:55:55.255Z,0.00
2019-03-09T03:56:55.171Z,0.00
2019-03-09T03:57:55.080Z,0.00
2019-03-09T03:58:54.999Z,0.00
2019-03-09T03:59:54.916Z,0.00
2019-03-09T04:00:54.816Z,0.00
2019-03-09T04:01:54.776Z,0.00
2019-03-09T04:02:54.647Z,0.00
2019-03-09T04:03:54.572Z,0.00
2019-03-09T04:04:54.478Z,0.00
2019-03-09T04:05:54.409Z,0.00
2019-03-09T04:06:54.323Z,0.00
2019-03-09T04:07:54.227Z,0.00
2019-03-09T04:08:54.144Z,0.00
2019-03-09T04:09:54.060Z,0.00
2019-03-09T04:10:53.976Z,0.00
2019-03-09T04:11:53.910Z,0.00
2019-03-09T04:12:53.804Z,0.00
2019-03-09T04:13:53.716Z,0.00
2019-03-09T04:14:53.636Z,0.00
2019-03-09T04:15:53.550Z,0.00
2019-03-09T04:16:53.479Z,0.00
2019-03-09T04:17:53.386Z,0.00
2019-03-09T04:18:53.291Z,0.00
2019-03-09T04:19:53.209Z,0.00
2019-03-09T04:20:53.128Z,0.00
2019-03-09T04:21:53.065Z,0.00
2019-03-09T04:22:52.955Z,0.00
2019-03-09T04:23:52.874Z,0.00
2019-03-09T04:24:52.790Z,0.00
2019-03-09T04:25:52.713Z,0.00
2019-03-09T04:26:52.628Z,0.00
2019-03-09T04:27:52.531Z,0.00
2019-03-09T04:28:52.441Z,0.00
2019-03-09T04:29:52.362Z,0.00
2019-03-09T04:30:52.284Z,0.00
2019-03-09T04:31:52.201Z,0.00
2019-03-09T04:32:52.124Z,0.00
2019-03-09T04:33:52.018Z,0.00
2019-03-09T04:34:51.939Z,0.00
2019-03-09T04:35:51.877Z,0.00
2019-03-09T04:36:51.791Z,0.00
2019-03-09T04:37:51.694Z,0.00
2019-03-09T04:38:51.597Z,0.00
2019-03-09T04:39:51.519Z,0.00
2019-03-09T04:40:51.432Z,0.00
2019-03-09T04:41:51.357Z,0.00
2019-03-09T04:42:51.255Z,0.00
2019-03-09T04:43:51.175Z,0.00
2019-03-09T04:44:51.083Z,0.00
2019-03-09T04:45:51.009Z,0.00
2019-03-09T04:46:50.932Z,0.00
2019-03-09T04:47:50.835Z,0.00
2019-03-09T04:48:50.749Z,0.00
2019-03-09T04:49:50.669Z,0.00
2019-03-09T04:50:50.580Z,0.00
2019-03-09T04:51:50.493Z,0.00
2019-03-09T04:52:50.434Z,0.00
2019-03-09T04:53:50.322Z,0.00
2019-03-09T04:54:50.238Z,0.00
2019-03-09T04:55:50.156Z,0.00
2019-03-09T04:56:50.084Z,0.00
2019-03-09T04:57:50.000Z,0.00
2019-03-09T04:58:49.906Z,0.00
2019-03-09T04:59:49.821Z,0.00
2019-03-09T05:00:49.739Z,0.00
2019-03-09T05:01:49.650Z,0.00
2019-03-09T05:02:49.586Z,0.00
2019-03-09T05:03:49.478Z,0.00
2019-03-09T05:04:49.391Z,0.00
2019-03-09T05:05:49.311Z,0.00
2019-03-09T05:06:49.222Z,0.00
2019-03-09T05:07:49.151Z,0.00
2019-03-09T05:08:49.063Z,0.00
2019-03-09T05:09:48.976Z,0.00
2019-03-09T05:10:48.893Z,0.00
2019-03-09T05:11:48.800Z,0.00
2019-03-09T05:12:48.743Z,0.00
2019-03-09T05:13:48.631Z,0.00
2019-03-09T05:14:48.552Z,0.00
2019-03-09T05:15:48.460Z,0.00
2019-03-09T05:16:48.386Z,0.00
2019-03-09T05:17:48.304Z,0.00
2019-03-09T05:18:48.208Z,0.00
2019-03-09T05:19:48.127Z,0.00
2019-03-09T05:20:48.046Z,0.00
2019-03-09T05:21:47.954Z,0.00
2019-03-09T05:22:47.883Z,0.00
2019-03-09T05:23:47.791Z,0.00
2019-03-09T05:24:47.704Z,0.00
2019-03-09T05:25:47.635Z,0.00
2019-03-09T05:26:47.535Z,0.00
2019-03-09T05:27:47.478Z,0.00
2019-03-09T05:28:47.364Z,0.00
2019-03-09T05:29:47.287Z,0.00
2019-03-09T05:30:47.207Z,0.00
2019-03-09T05:31:47.117Z,4.00
2019-03-09T05:32:47.050Z,4.00
2019-03-09T05:33:46.947Z,0.00
2019-03-09T05:34:46.867Z,0.00
2019-03-09T05:35:46.791Z,4.00
2019-03-09T05:36:46.688Z,4.00
2019-03-09T05:37:46.627Z,4.00
2019-03-09T05:38:46.520Z,4.00
2019-03-09T05:39:46.441Z,4.00
2019-03-09T05:40:46.354Z,4.00
2019-03-09T05:41:46.295Z,8.00
2019-03-09T05:42:46.196Z,8.00
2019-03-09T05:43:46.107Z,16.00
2019-03-09T05:44:46.013Z,20.00
2019-03-09T05:45:45.947Z,24.00
2019-03-09T05:46:45.845Z,28.00
2019-03-09T05:47:45.789Z,44.00
2019-03-09T05:48:45.687Z,64.00
2019-03-09T05:49:45.593Z,68.00
2019-03-09T05:50:45.506Z,76.00
2019-03-09T05:51:45.426Z,88.00
2019-03-09T05:52:45.352Z,128.00
2019-03-09T05:53:45.270Z,168.00
2019-03-09T05:54:45.171Z,180.00
2019-03-09T05:55:45.095Z,188.00
2019-03-09T05:56:45.002Z,224.00
2019-03-09T05:57:44.937Z,292.00
2019-03-09T05:58:44.835Z,348.00
2019-03-09T05:59:44.753Z,408.00
2019-03-09T06:00:44.663Z,468.00
2019-03-09T06:01:44.586Z,524.00
2019-03-09T06:02:44.518Z,596.00
2019-03-09T06:03:44.417Z,672.00
2019-03-09T06:04:44.346Z,724.00
2019-03-09T06:05:44.258Z,768.00
2019-03-09T06:06:44.157Z,840.00
2019-03-09T06:07:44.094Z,888.00
2019-03-09T06:08:43.990Z,916.00
2019-03-09T06:09:43.901Z,988.00
2019-03-09T06:10:43.830Z,1004.00
2019-03-09T06:11:43.734Z,1040.00
2019-03-09T06:12:43.676Z,1164.00
2019-03-09T06:13:43.594Z,1228.00
2019-03-09T06:14:43.496Z,1352.00
2019-03-09T06:15:43.413Z,1480.00
2019-03-09T06:16:43.319Z,1544.00
2019-03-09T06:17:43.245Z,1668.00
2019-03-09T06:18:43.145Z,1832.00
2019-03-09T06:19:43.078Z,2032.00
2019-03-09T06:20:42.986Z,2192.00
2019-03-09T06:21:42.890Z,2316.00
2019-03-09T06:22:42.845Z,2504.00
2019-03-09T06:23:42.729Z,2728.00
2019-03-09T06:24:42.639Z,2932.00
2019-03-09T06:25:42.556Z,3076.00
2019-03-09T06:26:42.472Z,3244.00
2019-03-09T06:27:42.391Z,3452.00
2019-03-09T06:28:42.321Z,3656.00
2019-03-09T06:29:42.215Z,3896.00
2019-03-09T06:30:42.145Z,4248.00
2019-03-09T06:31:42.052Z,4524.00
2019-03-09T06:32:41.967Z,4832.00
2019-03-09T06:33:41.901Z,5316.00
2019-03-09T06:34:41.793Z,5472.00
2019-03-09T06:35:41.717Z,5348.00
2019-03-09T06:36:41.628Z,5216.00
2019-03-09T06:37:41.550Z,5472.00
2019-03-09T06:38:41.468Z,5784.00
2019-03-09T06:39:41.378Z,6084.00
2019-03-09T06:40:41.301Z,5856.00
2019-03-09T06:41:41.203Z,5516.00
2019-03-09T06:42:41.120Z,5796.00
2019-03-09T06:43:41.062Z,6180.00
2019-03-09T06:44:40.952Z,6136.00
2019-03-09T06:45:40.877Z,5872.00
2019-03-09T06:46:40.792Z,5740.00
2019-03-09T06:47:40.709Z,6276.00
2019-03-09T06:48:40.628Z,6848.00
2019-03-09T06:49:40.557Z,7092.00
2019-03-09T06:50:40.476Z,7356.00
2019-03-09T06:51:40.378Z,8112.00
2019-03-09T06:52:40.291Z,8216.00
2019-03-09T06:53:40.226Z,8056.00
2019-03-09T06:54:40.108Z,7960.00
2019-03-09T06:55:40.030Z,7868.00
2019-03-09T06:56:39.951Z,7924.00
2019-03-09T06:57:39.859Z,7836.00
2019-03-09T06:58:39.805Z,7496.00
2019-03-09T06:59:39.708Z,7152.00
2019-03-09T07:00:39.610Z,6800.00
2019-03-09T07:01:39.527Z,6328.00
2019-03-09T07:02:39.446Z,5736.00
2019-03-09T07:03:39.378Z,5616.00
2019-03-09T07:04:39.274Z,5800.00
2019-03-09T07:05:39.190Z,5920.00
2019-03-09T07:06:39.113Z,5732.00
2019-03-09T07:07:39.041Z,5460.00
2019-03-09T07:08:39.555Z,5260.00
2019-03-09T07:09:38.864Z,5200.00
2019-03-09T07:10:38.774Z,5276.00
2019-03-09T07:11:38.700Z,5316.00
2019-03-09T07:12:38.603Z,5272.00
2019-03-09T07:13:38.561Z,5300.00
2019-03-09T07:14:38.437Z,5372.00
2019-03-09T07:15:38.356Z,5440.00
2019-03-09T07:16:38.289Z,5472.00
2019-03-09T07:17:38.194Z,5496.00
2019-03-09T07:18:38.127Z,5500.00
2019-03-09T07:19:38.037Z,5492.00
2019-03-09T07:20:37.940Z,5472.00
2019-03-09T07:21:37.851Z,5408.00
2019-03-09T07:22:37.776Z,5308.00
2019-03-09T07:23:37.698Z,5228.00
2019-03-09T07:24:37.616Z,5324.00
2019-03-09T07:25:37.527Z,5556.00
2019-03-09T07:26:37.433Z,5728.00
2019-03-09T07:27:37.356Z,5652.00
2019-03-09T07:28:37.280Z,5456.00
2019-03-09T07:29:37.406Z,5032.00
2019-03-09T07:30:37.097Z,4848.00
2019-03-09T07:31:37.021Z,4844.00
2019-03-09T07:32:37.014Z,5224.00
2019-03-09T07:33:36.874Z,5820.00
2019-03-09T07:34:36.768Z,6708.00
2019-03-09T07:35:36.831Z,7320.00
2019-03-09T07:36:36.596Z,7480.00
2019-03-09T07:37:37.106Z,6748.00
2019-03-09T07:38:36.447Z,6476.00
2019-03-09T07:39:36.447Z,5900.00
2019-03-09T07:40:36.267Z,5672.00
2019-03-09T07:41:36.182Z,5876.00
2019-03-09T07:42:36.152Z,5704.00
2019-03-09T07:43:36.034Z,5948.00
2019-03-09T07:44:35.926Z,6388.00
2019-03-09T07:45:35.948Z,7180.00
2019-03-09T07:46:35.758Z,8164.00
2019-03-09T07:47:35.678Z,8684.00
2019-03-09T07:48:35.691Z,9112.00
2019-03-09T07:49:35.508Z,9116.00
2019-03-09T07:50:35.435Z,8756.00
2019-03-09T07:51:35.378Z,8244.00
2019-03-09T07:52:35.260Z,7804.00
2019-03-09T07:53:35.195Z,7776.00
2019-03-09T07:54:35.195Z,8140.00
2019-03-09T07:55:35.012Z,8556.00
2019-03-09T07:56:35.003Z,9184.00
2019-03-09T07:57:34.850Z,9184.00
2019-03-09T07:58:34.845Z,8924.00
2019-03-09T07:59:34.683Z,8892.00
2019-03-09T08:00:34.629Z,8996.00
2019-03-09T08:01:34.504Z,9428.00
2019-03-09T08:02:34.428Z,9820.00
2019-03-09T08:03:34.468Z,10312.00
2019-03-09T08:04:34.259Z,11024.00
2019-03-09T08:05:34.186Z,11580.00
2019-03-09T08:06:34.153Z,11768.00
2019-03-09T08:07:34.013Z,11712.00
2019-03-09T08:08:35.006Z,11696.00
2019-03-09T08:09:33.854Z,11804.00
2019-03-09T08:10:33.762Z,11652.00
2019-03-09T08:11:33.780Z,11056.00
2019-03-09T08:12:33.602Z,11192.00
2019-03-09T08:13:33.509Z,10776.00
2019-03-09T08:14:34.446Z,9712.00
2019-03-09T08:15:33.340Z,9388.00
2019-03-09T08:16:35.683Z,10208.00
2019-03-09T08:17:33.187Z,9484.00
2019-03-09T08:18:33.091Z,9896.00
2019-03-09T08:19:33.020Z,11076.00
2019-03-09T08:20:33.945Z,9468.00
2019-03-09T08:21:32.847Z,8992.00
2019-03-09T08:22:32.839Z,10212.00
2019-03-09T08:23:32.684Z,11020.00
2019-03-09T08:24:32.618Z,11072.00
2019-03-09T08:25:32.511Z,10144.00
2019-03-09T08:26:32.442Z,9156.00
2019-03-09T08:27:32.347Z,9948.00
2019-03-09T08:28:32.365Z,9100.00
2019-03-09T08:29:32.195Z,10096.00
2019-03-09T08:30:32.169Z,10216.00
2019-03-09T08:31:32.011Z,10464.00
2019-03-09T08:32:31.949Z,10740.00
2019-03-09T08:33:31.853Z,10228.00
2019-03-09T08:34:31.822Z,10080.00
2019-03-09T08:35:31.686Z,10036.00
2019-03-09T08:36:31.716Z,9960.00
2019-03-09T08:37:31.517Z,10096.00
2019-03-09T08:38:31.525Z,10092.00
2019-03-09T08:39:31.393Z,10928.00
2019-03-09T08:40:31.317Z,11116.00
2019-03-09T08:41:31.869Z,11832.00
2019-03-09T08:42:31.131Z,11960.00
2019-03-09T08:43:31.167Z,11832.00
2019-03-09T08:44:30.950Z,11784.00
2019-03-09T08:45:30.849Z,12008.00
2019-03-09T08:46:30.949Z,12616.00
2019-03-09T08:47:30.693Z,12980.00
2019-03-09T08:48:30.602Z,13140.00
2019-03-09T08:49:30.813Z,13464.00
2019-03-09T08:50:30.445Z,13400.00
2019-03-09T08:51:30.359Z,13292.00
2019-03-09T08:52:30.377Z,12884.00
2019-03-09T08:53:31.289Z,13924.00
2019-03-09T08:54:30.145Z,13484.00
2019-03-09T08:55:30.189Z,13388.00
2019-03-09T08:56:29.939Z,12720.00
2019-03-09T08:57:30.012Z,12276.00
2019-03-09T08:58:29.768Z,13124.00
2019-03-09T08:59:29.840Z,13892.00
2019-03-09T09:00:30.492Z,14204.00
2019-03-09T09:01:29.536Z,14228.00
2019-03-09T09:02:29.623Z,15256.00
2019-03-09T09:03:29.353Z,15860.00
2019-03-09T09:04:29.284Z,16056.00
2019-03-09T09:05:29.231Z,16076.00
2019-03-09T09:06:29.107Z,16476.00
2019-03-09T09:07:29.254Z,16172.00
2019-03-09T09:08:28.947Z,15768.00
2019-03-09T09:09:29.101Z,15280.00
2019-03-09T09:10:28.773Z,15760.00
2019-03-09T09:11:28.691Z,15276.00
2019-03-09T09:12:28.772Z,14480.00
2019-03-09T09:13:28.529Z,13860.00
2019-03-09T09:14:28.456Z,13636.00
2019-03-09T09:15:28.484Z,13676.00
2019-03-09T09:16:28.305Z,13936.00
2019-03-09T09:17:28.884Z,14228.00
2019-03-09T09:18:28.298Z,14652.00
2019-03-09T09:19:31.321Z,14880.00
2019-03-09T09:20:29.326Z,14640.00
2019-03-09T09:21:27.904Z,14440.00
2019-03-09T09:22:27.781Z,14180.00
2019-03-09T09:23:27.705Z,13632.00
2019-03-09T09:24:27.760Z,12680.00
2019-03-09T09:25:27.541Z,11916.00
2019-03-09T09:26:27.452Z,11548.00
2019-03-09T09:27:27.544Z,11576.00
2019-03-09T09:28:27.286Z,11760.00
2019-03-09T09:29:27.238Z,12260.00
2019-03-09T09:30:27.148Z,13356.00
2019-03-09T09:31:27.047Z,14604.00
2019-03-09T09:32:26.962Z,15716.00
2019-03-09T09:33:26.961Z,17040.00
2019-03-09T09:34:26.788Z,18176.00
2019-03-09T09:35:26.801Z,18752.00
2019-03-09T09:36:26.621Z,18272.00
2019-03-09T09:37:26.540Z,17824.00
2019-03-09T09:38:26.585Z,15876.00
2019-03-09T09:39:26.378Z,15124.00
2019-03-09T09:40:26.329Z,15276.00
2019-03-09T09:41:26.223Z,16084.00
2019-03-09T09:42:26.135Z,16908.00
2019-03-09T09:43:26.208Z,17504.00
2019-03-09T09:44:25.962Z,17536.00
2019-03-09T09:45:25.958Z,17504.00
2019-03-09T09:46:25.801Z,17472.00
2019-03-09T09:47:25.716Z,17856.00
2019-03-09T09:48:25.741Z,18496.00
2019-03-09T09:49:25.550Z,18080.00
2019-03-09T09:50:25.479Z,15340.00
2019-03-09T09:51:27.398Z,15112.00
2019-03-09T09:52:25.302Z,16632.00
2019-03-09T09:53:25.252Z,17216.00
2019-03-09T09:54:25.167Z,15848.00
2019-03-09T09:55:25.078Z,15376.00
2019-03-09T09:56:24.982Z,17536.00
2019-03-09T09:57:25.906Z,16836.00
2019-03-09T09:58:24.813Z,17888.00
2019-03-09T09:59:24.728Z,19744.00
2019-03-09T10:00:24.731Z,19360.00
2019-03-09T10:01:24.567Z,19168.00
2019-03-09T10:02:24.499Z,19680.00
2019-03-09T10:03:25.437Z,19808.00
2019-03-09T10:04:24.324Z,20384.00
2019-03-09T10:05:24.364Z,20832.00
2019-03-09T10:06:24.158Z,20192.00
2019-03-09T10:07:24.068Z,19872.00
2019-03-09T10:08:24.038Z,20192.00
2019-03-09T10:09:23.912Z,20960.00
2019-03-09T10:10:23.840Z,21504.00
2019-03-09T10:11:23.852Z,21824.00
2019-03-09T10:12:23.658Z,22560.00
2019-03-09T10:13:23.579Z,22784.00
2019-03-09T10:14:23.575Z,21440.00
2019-03-09T10:15:23.423Z,21184.00
2019-03-09T10:16:23.340Z,20608.00
2019-03-09T10:17:23.255Z,20192.00
2019-03-09T10:18:23.164Z,20800.00
2019-03-09T10:19:23.089Z,23264.00
2019-03-09T10:20:23.021Z,24480.00
2019-03-09T10:21:22.928Z,26752.00
2019-03-09T10:22:22.837Z,30112.00
2019-03-09T10:23:22.777Z,32320.00
2019-03-09T10:24:22.673Z,33152.00
2019-03-09T10:25:22.613Z,33728.00
2019-03-09T10:26:25.677Z,31584.00
2019-03-09T10:27:22.430Z,29056.00
2019-03-09T10:28:22.351Z,28896.00
2019-03-09T10:29:22.285Z,29472.00
2019-03-09T10:30:22.219Z,25952.00
2019-03-09T10:31:22.110Z,24064.00
2019-03-09T10:32:22.021Z,22656.00
2019-03-09T10:33:24.177Z,22240.00
2019-03-09T10:34:21.864Z,23232.00
2019-03-09T10:35:21.794Z,24896.00
2019-03-09T10:36:21.695Z,27168.00
2019-03-09T10:37:21.630Z,28992.00
2019-03-09T10:38:21.550Z,30016.00
2019-03-09T10:39:21.453Z,28320.00
2019-03-09T10:40:21.399Z,27072.00
2019-03-09T10:41:21.288Z,27584.00
2019-03-09T10:42:21.206Z,26944.00
2019-03-09T10:43:21.140Z,26912.00
2019-03-09T10:44:21.053Z,26272.00
2019-03-09T10:45:20.979Z,25120.00
2019-03-09T10:46:20.888Z,23616.00
2019-03-09T10:47:20.805Z,22240.00
2019-03-09T10:48:20.717Z,21408.00
2019-03-09T10:49:20.653Z,22112.00
2019-03-09T10:50:20.579Z,22656.00
2019-03-09T10:51:20.481Z,23072.00
2019-03-09T10:52:20.405Z,23712.00
2019-03-09T10:53:20.315Z,24224.00
2019-03-09T10:54:20.231Z,24480.00
2019-03-09T10:55:20.294Z,23808.00
2019-03-09T10:56:20.069Z,23840.00
2019-03-09T10:57:19.987Z,24864.00
2019-03-09T10:58:21.933Z,25984.00
2019-03-09T10:59:19.839Z,26624.00
2019-03-09T11:00:19.744Z,26528.00
2019-03-09T11:01:19.828Z,26144.00
2019-03-09T11:02:19.606Z,24032.00
2019-03-09T11:03:19.497Z,23776.00
2019-03-09T11:04:27.661Z,23296.00
2019-03-09T11:05:19.332Z,23904.00
2019-03-09T11:06:19.320Z,24128.00
2019-03-09T11:07:19.227Z,24320.00
2019-03-09T11:08:19.090Z,25312.00
2019-03-09T11:09:19.007Z,25504.00
2019-03-09T11:10:19.969Z,24032.00
2019-03-09T11:11:18.868Z,23840.00
2019-03-09T11:12:18.764Z,23808.00
2019-03-09T11:13:18.814Z,24576.00
2019-03-09T11:14:18.601Z,26336.00
2019-03-09T11:15:18.523Z,26688.00
2019-03-09T11:16:18.664Z,28928.00
2019-03-09T11:17:18.359Z,28480.00
2019-03-09T11:18:18.279Z,28128.00
2019-03-09T11:19:18.240Z,26816.00
2019-03-09T11:20:18.112Z,24608.00
2019-03-09T11:21:18.079Z,26464.00
2019-03-09T11:22:17.949Z,28224.00
2019-03-09T11:23:18.063Z,29376.00
2019-03-09T11:24:17.792Z,28064.00
2019-03-09T11:25:17.869Z,26368.00
2019-03-09T11:26:17.634Z,25600.00
2019-03-09T11:27:17.560Z,25120.00
2019-03-09T11:28:17.473Z,25728.00
2019-03-09T11:29:17.390Z,26176.00
2019-03-09T11:30:17.312Z,25312.00
2019-03-09T11:31:17.230Z,25664.00
2019-03-09T11:32:17.144Z,24448.00
2019-03-09T11:33:17.086Z,23072.00
2019-03-09T11:34:16.974Z,22368.00
2019-03-09T11:35:16.910Z,23040.00
2019-03-09T11:36:16.838Z,23264.00
2019-03-09T11:37:16.740Z,22208.00
2019-03-09T11:38:16.648Z,22080.00
2019-03-09T11:39:16.593Z,23104.00
2019-03-09T11:40:16.495Z,24544.00
2019-03-09T11:41:19.335Z,25248.00
2019-03-09T11:42:16.327Z,28032.00
2019-03-09T11:43:16.256Z,37472.00
2019-03-09T11:44:16.170Z,41120.00
2019-03-09T11:45:16.086Z,40096.00
2019-03-09T11:46:16.018Z,40800.00
2019-03-09T11:47:15.922Z,38688.00
2019-03-09T11:48:15.832Z,35840.00
2019-03-09T11:49:15.755Z,34112.00
2019-03-09T11:50:15.679Z,31680.00
2019-03-09T11:51:15.609Z,30816.00
2019-03-09T11:52:20.148Z,25600.00
2019-03-09T11:53:15.443Z,26848.00
2019-03-09T11:54:15.353Z,32192.00
2019-03-09T11:55:15.275Z,56096.00
2019-03-09T11:56:15.204Z,72768.00
2019-03-09T11:57:15.119Z,53344.00
2019-03-09T11:58:15.023Z,62720.00
2019-03-09T11:59:14.950Z,55616.00
2019-03-09T12:00:14.863Z,74048.00
2019-03-09T12:01:14.795Z,43328.00
2019-03-09T12:02:14.699Z,55168.00
2019-03-09T12:03:14.628Z,69824.00
2019-03-09T12:04:14.541Z,53728.00
2019-03-09T12:05:14.470Z,26400.00
2019-03-09T12:06:14.398Z,100032.00
2019-03-09T12:07:14.308Z,65408.00
2019-03-09T12:08:14.220Z,51392.00
2019-03-09T12:09:14.157Z,91840.00
2019-03-09T12:10:14.070Z,77408.00
2019-03-09T12:11:14.001Z,87488.00
2019-03-09T12:12:13.926Z,73472.00
2019-03-09T12:13:13.850Z,29088.00
2019-03-09T12:14:13.762Z,103232.00
2019-03-09T12:15:13.663Z,54528.00
2019-03-09T12:16:13.596Z,29120.00
2019-03-09T12:17:13.519Z,80704.00
2019-03-09T12:18:13.432Z,78048.00
2019-03-09T12:19:13.349Z,37248.00
2019-03-09T12:20:13.265Z,30560.00
2019-03-09T12:21:13.192Z,34080.00
2019-03-09T12:22:13.122Z,92800.00
2019-03-09T12:23:13.032Z,84960.00
2019-03-09T12:24:18.755Z,93568.00
2019-03-09T12:25:12.867Z,86304.00
2019-03-09T12:26:12.795Z,47040.00
2019-03-09T12:27:12.728Z,26816.00
2019-03-09T12:28:12.647Z,20992.00
2019-03-09T12:29:12.555Z,35456.00